Time;durP1;ratioP1;P1;durP2;ratioP2;P2;SDS_P1;SDS_P2;PMS_P1;PMS_P2;Temp;Humidity;BMP_temperature;BMP_pressure;BME280_temperature;BME280_humidity;BME280_pressure;Samples;Min_cycle;Max_cycle;Signal;HPM_P1;HPM_P2
2023/08/19 00:01:34;;;;;;;11.43;8.30;;;;;;;19.41;96.27;101580.63;4944187;28;20042;-76
2023/08/19 00:04:01;;;;;;;9.85;8.68;;;;;;;19.36;96.27;101592.41;4960850;28;20038;-77
2023/08/19 00:06:37;;;;;;;9.65;8.63;;;;;;;19.34;96.13;101594.63;4945327;28;20022;-77
2023/08/19 00:09:04;;;;;;;10.23;8.25;;;;;;;19.35;96.19;101587.28;4942887;28;20522;-74
2023/08/19 00:11:31;;;;;;;11.23;9.50;;;;;;;19.35;96.68;101590.81;4946784;28;20566;-79
2023/08/19 00:13:57;;;;;;;12.43;9.15;;;;;;;19.35;96.50;101590.81;4947250;28;20038;-78
2023/08/19 00:16:23;;;;;;;12.18;10.35;;;;;;;19.33;96.85;101582.16;4946272;28;20164;-77
2023/08/19 00:18:49;;;;;;;12.13;8.90;;;;;;;19.32;96.60;101580.56;4965362;28;20041;-78
2023/08/19 00:21:14;;;;;;;10.90;9.68;;;;;;;19.32;96.65;101587.91;4962920;28;20463;-79
2023/08/19 00:23:40;;;;;;;11.25;9.48;;;;;;;19.29;96.55;101586.59;4948919;28;20038;-79
2023/08/19 00:26:06;;;;;;;11.20;9.27;;;;;;;19.27;96.60;101588.81;4944603;28;20419;-78
2023/08/19 00:28:32;;;;;;;10.57;8.68;;;;;;;19.26;96.47;101589.16;4945053;28;20038;-78
2023/08/19 00:30:57;;;;;;;9.70;7.75;;;;;;;19.24;96.04;101577.78;4966218;28;20367;-79
2023/08/19 00:33:24;;;;;;;7.85;6.63;;;;;;;19.24;95.97;101581.31;4952489;28;20038;-79
2023/08/19 00:35:53;;;;;;;10.45;7.47;;;;;;;19.25;96.07;101577.47;4933210;28;20518;-77
2023/08/19 00:38:20;;;;;;;13.68;9.20;;;;;;;19.22;96.27;101575.38;4945662;28;20049;-78
2023/08/19 00:40:46;;;;;;;11.05;9.43;;;;;;;19.18;96.52;101571.69;4959395;28;20826;-78
2023/08/19 00:43:12;;;;;;;9.23;7.82;;;;;;;19.19;96.86;101559.69;4965343;28;20049;-75
2023/08/19 00:45:44;;;;;;;9.27;8.13;;;;;;;19.18;96.82;101563.53;4963490;28;20058;-77
2023/08/19 00:48:12;;;;;;;12.05;8.88;;;;;;;19.15;96.98;101568.75;4964675;28;20354;-77
2023/08/19 00:50:40;;;;;;;11.55;9.57;;;;;;;19.13;96.93;101570.97;4946459;28;20058;-78
2023/08/19 00:53:08;;;;;;;10.80;8.10;;;;;;;19.10;96.79;101561.53;4941918;28;20039;-76
2023/08/19 00:55:35;;;;;;;11.98;10.18;;;;;;;19.12;96.94;101570.19;4948645;28;20046;-77
2023/08/19 00:58:07;;;;;;;13.93;10.25;;;;;;;19.10;97.75;101550.66;4951093;28;20042;-77
2023/08/19 01:00:34;;;;;;;16.88;9.95;;;;;;;19.11;97.81;101554.22;4943303;28;20046;-77
2023/08/19 01:03:00;;;;;;;11.75;8.82;;;;;;;19.09;97.46;101557.22;4945785;28;20034;-77
2023/08/19 01:05:52;;;;;;;14.85;9.75;;;;;;;19.06;97.33;101545.06;4946547;28;20073;-78
2023/08/19 01:08:26;;;;;;;12.50;8.85;;;;;;;19.07;97.82;101543.16;4918108;28;20074;-77
2023/08/19 01:11:23;;;;;;;13.35;9.70;;;;;;;19.06;97.70;101542.34;4937323;28;20121;-78
2023/08/19 01:14:04;;;;;;;13.88;9.70;;;;;;;19.05;97.74;101542.66;4931862;28;20070;-76
2023/08/19 01:16:31;;;;;;;16.15;9.90;;;;;;;19.05;97.82;101551.59;4959456;28;20031;-77
2023/08/19 01:19:00;;;;;;;15.57;10.05;;;;;;;19.06;98.12;101546.97;4947623;28;20049;-78
2023/08/19 01:21:27;;;;;;;13.10;10.55;;;;;;;19.02;98.13;101538.63;4962020;28;20091;-79
2023/08/19 01:23:58;;;;;;;10.77;9.27;;;;;;;19.02;98.17;101537.81;4945302;28;21015;-76
2023/08/19 01:26:23;;;;;;;13.30;9.25;;;;;;;19.01;97.91;101534.31;4932640;28;20034;-76
2023/08/19 01:28:50;;;;;;;14.95;10.40;;;;;;;19.02;98.18;101526.97;4961666;28;20101;-76
2023/08/19 01:31:15;;;;;;;12.40;9.85;;;;;;;19.00;97.98;101529.19;4933502;28;20117;-77
2023/08/19 01:33:41;;;;;;;12.90;10.98;;;;;;;18.99;97.78;101528.41;4964866;28;20415;-76
2023/08/19 01:36:31;;;;;;;12.93;9.88;;;;;;;18.97;97.92;101541.47;4929212;28;20038;-77
2023/08/19 01:39:07;;;;;;;14.50;9.80;;;;;;;18.95;97.95;101545.59;4956724;28;20050;-77
2023/08/19 01:41:34;;;;;;;11.90;9.40;;;;;;;18.93;97.70;101543.19;4944864;28;20125;-77
2023/08/19 01:44:01;;;;;;;13.27;10.00;;;;;;;18.91;97.64;101541.91;4950620;28;20046;-78
2023/08/19 01:46:28;;;;;;;13.02;10.43;;;;;;;18.92;97.94;101548.94;4947030;28;20488;-77
2023/08/19 01:48:54;;;;;;;12.50;9.30;;;;;;;18.90;97.81;101551.13;4942966;28;20483;-78
2023/08/19 01:51:21;;;;;;;15.00;10.57;;;;;;;18.87;98.01;101552.56;4950239;28;20088;-77
2023/08/19 01:53:46;;;;;;;12.63;11.13;;;;;;;18.87;98.22;101552.56;4962529;28;20069;-76
2023/08/19 01:56:12;;;;;;;11.15;9.68;;;;;;;18.87;98.47;101538.19;4960176;28;20111;-79
2023/08/19 01:58:38;;;;;;;13.05;11.07;;;;;;;18.90;99.13;101538.38;4943774;28;20045;-76
2023/08/19 02:01:04;;;;;;;13.77;11.82;;;;;;;18.89;99.11;101534.03;4943454;28;20419;-77
2023/08/19 02:03:29;;;;;;;14.50;10.57;;;;;;;18.91;98.86;101531.84;4964617;28;20139;-77
2023/08/19 02:05:55;;;;;;;13.10;10.75;;;;;;;18.94;98.87;101535.84;4947903;28;20157;-78
2023/08/19 02:08:21;;;;;;;13.52;12.07;;;;;;;18.96;98.88;101533.63;4943952;28;20056;-76
2023/08/19 02:10:47;;;;;;;14.48;12.38;;;;;;;18.95;99.07;101532.03;4958255;28;20068;-76
2023/08/19 02:13:13;;;;;;;11.30;9.82;;;;;;;18.93;98.99;101529.63;4957864;28;20035;-77
2023/08/19 02:15:38;;;;;;;10.70;9.60;;;;;;;18.98;99.07;101531.44;4946431;28;20748;-75
2023/08/19 02:18:04;;;;;;;12.20;10.68;;;;;;;18.99;99.30;101533.03;4960997;28;20085;-76
2023/08/19 02:20:30;;;;;;;13.80;10.32;;;;;;;18.99;99.06;101533.03;4960970;28;20034;-78
2023/08/19 02:22:58;;;;;;;15.73;11.82;;;;;;;19.01;99.19;101528.88;4957129;28;20100;-76
2023/08/19 02:25:24;;;;;;;14.60;11.43;;;;;;;19.02;99.24;101537.81;4958907;28;20400;-76
2023/08/19 02:27:50;;;;;;;15.30;11.05;;;;;;;19.02;99.52;101533.19;4942165;28;20745;-76
2023/08/19 02:30:15;;;;;;;14.55;11.77;;;;;;;19.03;99.41;101532.13;4944621;28;20432;-76
2023/08/19 02:32:42;;;;;;;15.88;11.98;;;;;;;19.05;99.45;101531.81;4932058;28;20619;-77
2023/08/19 02:35:09;;;;;;;14.63;10.90;;;;;;;19.07;99.20;101535.00;4961852;28;20137;-77
2023/08/19 02:37:35;;;;;;;14.32;11.45;;;;;;;19.05;99.12;101532.59;4931108;28;20182;-78
2023/08/19 02:40:03;;;;;;;16.20;11.05;;;;;;;19.06;99.20;101527.97;4946036;28;20034;-77
2023/08/19 02:42:29;;;;;;;14.43;11.15;;;;;;;19.05;99.01;101527.19;4946054;28;20832;-77
2023/08/19 02:44:54;;;;;;;14.02;12.38;;;;;;;19.05;98.92;101524.47;4959879;28;20042;-76
2023/08/19 02:47:21;;;;;;;13.52;11.65;;;;;;;19.05;99.41;101531.81;4933032;28;20077;-78
2023/08/19 02:49:48;;;;;;;15.45;11.65;;;;;;;19.07;99.25;101524.16;4943982;28;20439;-76
2023/08/19 02:52:14;;;;;;;14.80;11.48;;;;;;;19.05;99.22;101523.66;4959322;28;20113;-78
2023/08/19 02:54:40;;;;;;;15.60;11.18;;;;;;;19.06;99.11;101526.06;4956191;28;20052;-75
2023/08/19 02:57:06;;;;;;;16.77;12.38;;;;;;;19.06;99.15;101531.50;4966830;28;20772;-75
2023/08/19 02:59:32;;;;;;;13.35;11.23;;;;;;;19.08;99.18;101531.19;4930384;28;20562;-74
2023/08/19 03:01:57;;;;;;;14.95;11.68;;;;;;;19.06;98.84;101542.34;4936972;28;20042;-74
2023/08/19 03:04:23;;;;;;;13.25;11.43;;;;;;;19.07;98.74;101543.16;4947249;28;20582;-77
2023/08/19 03:06:49;;;;;;;18.17;12.68;;;;;;;19.08;98.80;101542.03;4941894;28;20408;-77
2023/08/19 03:09:15;;;;;;;16.60;11.02;;;;;;;19.08;98.49;101547.47;4928831;28;21065;-77
2023/08/19 03:11:41;;;;;;;12.15;9.52;;;;;;;19.06;98.50;101547.78;4962423;28;20042;-78
2023/08/19 03:14:07;;;;;;;14.00;10.93;;;;;;;19.04;98.46;101541.06;4960279;28;20041;-80
2023/08/19 03:16:33;;;;;;;20.17;11.40;;;;;;;19.04;98.41;101539.16;4962981;28;20026;-78
2023/08/19 03:18:59;;;;;;;11.60;10.45;;;;;;;19.03;97.99;101534.00;4947399;28;20491;-78
2023/08/19 03:21:25;;;;;;;10.70;9.15;;;;;;;18.99;98.11;101533.03;4943341;28;20049;-79
2023/08/19 03:23:51;;;;;;;14.70;11.38;;;;;;;19.01;97.94;101533.50;4928023;28;20034;-78
2023/08/19 03:26:16;;;;;;;14.50;11.43;;;;;;;18.98;98.05;101531.44;4949931;28;20101;-79
2023/08/19 03:28:43;;;;;;;12.10;9.35;;;;;;;18.95;98.23;101532.81;4979769;28;20030;-79
2023/08/19 03:31:12;;;;;;;12.23;10.05;;;;;;;18.97;98.02;101535.25;4943254;28;20042;-78
2023/08/19 03:33:41;;;;;;;13.32;10.73;;;;;;;18.94;98.02;101530.44;4936855;28;20039;-77
2023/08/19 03:36:07;;;;;;;16.80;12.18;;;;;;;18.93;98.39;101529.63;4954842;28;20042;-78
2023/08/19 03:38:34;;;;;;;13.43;11.60;;;;;;;18.93;98.35;101523.41;4964835;28;20052;-76
2023/08/19 03:40:59;;;;;;;17.05;13.05;;;;;;;18.87;98.35;101521.91;4930612;28;20037;-77
2023/08/19 03:43:27;;;;;;;16.45;12.85;;;;;;;18.89;98.40;101533.25;4942677;28;20054;-79
2023/08/19 03:45:53;;;;;;;13.52;10.88;;;;;;;18.87;98.47;101536.28;4940909;28;20030;-78
2023/08/19 03:48:18;;;;;;;12.68;10.70;;;;;;;18.88;98.40;101537.06;4962253;28;20042;-78
2023/08/19 03:50:44;;;;;;;16.20;10.93;;;;;;;18.86;98.29;101539.31;4947387;28;20040;-79
2023/08/19 03:53:10;;;;;;;15.25;12.02;;;;;;;18.86;98.75;101539.31;4961871;28;20039;-80
2023/08/19 03:55:35;;;;;;;13.88;11.48;;;;;;;18.84;98.63;101534.19;4950034;28;20076;-78
2023/08/19 03:58:01;;;;;;;13.23;11.27;;;;;;;18.83;98.88;101540.69;4952743;28;20037;-78
2023/08/19 04:00:26;;;;;;;14.23;11.00;;;;;;;18.84;98.66;101536.91;4966948;28;20071;-79
2023/08/19 04:02:52;;;;;;;15.45;11.50;;;;;;;18.87;98.69;101540.91;4950075;28;20042;-77
2023/08/19 04:05:17;;;;;;;13.63;12.23;;;;;;;18.87;98.78;101540.91;4950903;28;20034;-77
2023/08/19 04:07:43;;;;;;;14.73;11.85;;;;;;;18.88;98.70;101542.50;4966537;28;20034;-79
2023/08/19 04:10:11;;;;;;;18.02;12.43;;;;;;;18.88;98.81;101537.88;4953109;28;20038;-77
2023/08/19 04:12:37;;;;;;;12.77;11.13;;;;;;;18.90;98.90;101545.69;4981154;28;20037;-78
2023/08/19 04:15:03;;;;;;;14.70;12.52;;;;;;;18.93;99.10;101545.91;4971613;28;20056;-78
2023/08/19 04:17:33;;;;;;;12.43;11.20;;;;;;;18.95;99.05;101545.59;4946826;28;20089;-77
2023/08/19 04:19:59;;;;;;;12.77;11.38;;;;;;;19.00;98.81;101546.28;4950559;28;20042;-78
2023/08/19 04:22:25;;;;;;;13.93;11.23;;;;;;;19.01;98.75;101544.38;4949462;28;20038;-78
2023/08/19 04:24:52;;;;;;;12.27;10.88;;;;;;;19.02;98.41;101535.13;4937891;28;20174;-75
2023/08/19 04:27:18;;;;;;;14.05;12.18;;;;;;;19.05;98.76;101538.03;4962967;28;20023;-79
2023/08/19 04:29:45;;;;;;;14.60;11.43;;;;;;;19.07;98.39;101540.44;4936486;28;20027;-77
2023/08/19 04:32:13;;;;;;;15.32;12.18;;;;;;;19.09;98.33;101549.06;4965241;28;20042;-79
2023/08/19 04:34:40;;;;;;;14.88;11.63;;;;;;;19.10;98.13;101542.53;4963926;28;20092;-78
2023/08/19 04:37:07;;;;;;;16.15;11.80;;;;;;;19.15;97.94;101541.59;4947370;28;21328;-79
2023/08/19 04:39:33;;;;;;;15.15;12.02;;;;;;;19.16;97.87;101540.50;4964597;28;20038;-77
2023/08/19 04:42:07;;;;;;;14.43;12.65;;;;;;;19.14;97.89;101538.09;4935871;28;20044;-77
2023/08/19 04:44:32;;;;;;;14.15;10.95;;;;;;;19.18;97.72;101541.81;4962905;28;20030;-79
2023/08/19 04:47:01;;;;;;;15.00;11.18;;;;;;;19.17;97.67;101545.63;4930622;28;20039;-75
2023/08/19 04:49:27;;;;;;;12.15;10.93;;;;;;;19.19;97.55;101548.03;4948043;28;20833;-77
2023/08/19 04:51:53;;;;;;;14.23;11.55;;;;;;;19.19;97.54;101545.31;4962540;28;20038;-76
2023/08/19 04:54:19;;;;;;;12.93;10.27;;;;;;;19.19;97.63;101551.56;4970449;28;20506;-80
2023/08/19 04:56:44;;;;;;;11.60;10.45;;;;;;;19.21;97.50;101554.75;4947913;28;20034;-78
2023/08/19 04:59:10;;;;;;;14.65;10.52;;;;;;;19.21;97.59;101552.03;4948352;28;20034;-76
2023/08/19 05:01:36;;;;;;;15.93;10.68;;;;;;;19.20;97.60;101553.16;4926824;28;20530;-78
2023/08/19 05:04:02;;;;;;;13.65;11.13;;;;;;;19.20;97.65;101549.63;4934980;28;20771;-77
2023/08/19 05:06:28;;;;;;;12.48;11.18;;;;;;;19.23;97.74;101555.25;4959771;28;20104;-78
2023/08/19 05:08:53;;;;;;;14.27;11.38;;;;;;;19.24;97.61;101550.63;4966735;28;20487;-75
2023/08/19 05:11:20;;;;;;;13.88;10.50;;;;;;;19.25;97.35;101558.47;4950535;28;20062;-78
2023/08/19 05:13:48;;;;;;;14.63;10.18;;;;;;;19.24;97.36;101551.44;4945467;28;20511;-75
2023/08/19 05:16:15;;;;;;;12.98;10.35;;;;;;;19.25;97.34;101555.75;4934987;28;20038;-75
2023/08/19 05:18:41;;;;;;;12.95;10.63;;;;;;;19.25;97.23;101550.31;4951660;28;20034;-77
2023/08/19 05:21:07;;;;;;;11.93;10.77;;;;;;;19.29;97.07;101564.88;4961253;28;20679;-77
2023/08/19 05:23:33;;;;;;;11.60;10.13;;;;;;;19.32;97.01;101558.03;4935517;28;20043;-77
2023/08/19 05:25:58;;;;;;;13.43;11.45;;;;;;;19.33;97.13;101555.00;4939293;28;20137;-77
2023/08/19 05:28:24;;;;;;;12.88;11.57;;;;;;;19.36;97.05;101559.00;4934430;28;20034;-76
2023/08/19 05:30:50;;;;;;;11.60;9.55;;;;;;;19.40;96.80;101570.06;4965132;28;20133;-75
2023/08/19 05:33:15;;;;;;;11.85;10.38;;;;;;;19.45;96.65;101561.81;4968554;28;20042;-77
2023/08/19 05:35:41;;;;;;;13.27;10.38;;;;;;;19.50;96.21;101567.91;4950625;28;20783;-78
2023/08/19 05:38:07;;;;;;;11.85;10.55;;;;;;;19.53;96.21;101564.56;4927375;28;20141;-79
2023/08/19 05:40:32;;;;;;;10.95;9.85;;;;;;;19.58;96.24;101572.63;4933651;28;20066;-77
2023/08/19 05:42:58;;;;;;;11.77;10.13;;;;;;;19.63;96.14;101572.47;4934975;28;20120;-78
2023/08/19 05:45:23;;;;;;;15.68;10.30;;;;;;;19.67;95.54;101569.97;4969547;28;20042;-77
2023/08/19 05:47:49;;;;;;;11.45;9.93;;;;;;;19.73;95.70;101568.72;4948523;28;20042;-79
2023/08/19 05:50:15;;;;;;;12.23;10.10;;;;;;;19.77;95.31;101580.56;4966230;28;20117;-80
2023/08/19 05:52:41;;;;;;;11.52;9.50;;;;;;;19.81;95.26;101569.88;4963006;28;20851;-78
2023/08/19 05:55:07;;;;;;;11.68;9.85;;;;;;;19.89;94.83;101577.28;4980216;28;20045;-77
2023/08/19 05:57:32;;;;;;;11.63;9.98;;;;;;;19.93;94.65;101577.47;4948168;28;20097;-76
2023/08/19 05:59:58;;;;;;;11.07;9.65;;;;;;;19.96;94.37;101582.25;4959410;28;20050;-77
2023/08/19 06:02:23;;;;;;;12.85;9.70;;;;;;;20.00;94.03;101583.25;4955493;28;20419;-78
2023/08/19 06:04:49;;;;;;;11.43;9.90;;;;;;;20.08;94.18;101580.56;4948367;28;20080;-76
2023/08/19 06:07:19;;;;;;;11.60;8.48;;;;;;;20.11;93.77;101584.56;4948432;28;20026;-77
2023/08/19 06:09:44;;;;;;;10.98;9.02;;;;;;;20.16;93.51;101574.34;4966939;28;20109;-76
2023/08/19 06:12:10;;;;;;;13.18;9.80;;;;;;;20.23;93.11;101582.06;4967172;28;20037;-78
2023/08/19 06:14:37;;;;;;;14.45;9.13;;;;;;;20.31;92.58;101584.00;4949608;28;20125;-76
2023/08/19 06:17:03;;;;;;;9.65;8.63;;;;;;;20.35;92.09;101574.13;4960614;28;20049;-76
2023/08/19 06:19:29;;;;;;;11.45;9.43;;;;;;;20.45;91.99;101587.44;4945920;28;20065;-78
2023/08/19 06:21:55;;;;;;;12.10;9.32;;;;;;;20.49;91.69;101575.94;4960767;28;20123;-78
2023/08/19 06:24:20;;;;;;;10.60;8.88;;;;;;;20.57;91.62;101577.88;4934623;28;20042;-76
2023/08/19 06:26:47;;;;;;;11.98;9.18;;;;;;;20.65;91.42;101582.53;4950061;28;20034;-74
2023/08/19 06:29:12;;;;;;;11.55;9.32;;;;;;;20.70;91.08;101571.50;4930752;28;20061;-75
2023/08/19 06:31:39;;;;;;;10.65;9.20;;;;;;;20.78;91.35;101583.53;4945504;28;20074;-79
2023/08/19 06:34:06;;;;;;;11.52;10.10;;;;;;;20.87;90.35;101574.25;4959582;28;20030;-75
2023/08/19 06:36:36;;;;;;;9.85;8.85;;;;;;;20.89;89.72;101577.47;4928372;28;20556;-77
2023/08/19 06:39:28;;;;;;;11.25;10.05;;;;;;;20.98;89.98;101580.97;4960682;28;20046;-76
2023/08/19 06:42:26;;;;;;;10.48;9.00;;;;;;;21.07;89.65;101585.66;4938586;28;20041;-77
2023/08/19 06:45:30;;;;;;;9.45;8.25;;;;;;;21.11;90.92;101581.16;4980981;28;20034;-78
2023/08/19 06:47:57;;;;;;;9.35;8.45;;;;;;;21.15;89.96;101580.19;4943335;28;20136;-75
2023/08/19 06:50:23;;;;;;;11.43;9.50;;;;;;;21.29;89.60;101588.22;4962829;28;20377;-75
2023/08/19 06:52:49;;;;;;;11.57;9.25;;;;;;;21.40;89.31;101591.41;4928117;28;20496;-78
2023/08/19 06:55:15;;;;;;;10.30;9.30;;;;;;;21.51;88.66;101589.97;4940130;28;20169;-79
2023/08/19 06:57:59;;;;;;;11.52;9.80;;;;;;;21.58;88.04;101593.00;4945335;28;20041;-77
2023/08/19 07:00:25;;;;;;;10.63;9.52;;;;;;;21.62;87.60;101598.63;4946177;28;20117;-79
2023/08/19 07:02:52;;;;;;;9.50;8.50;;;;;;;21.70;87.48;101595.06;4932731;28;20789;-79
2023/08/19 07:05:19;;;;;;;12.05;8.98;;;;;;;21.81;86.60;101596.31;4952618;28;20026;-77
2023/08/19 07:07:48;;;;;;;14.13;9.77;;;;;;;21.86;87.68;101596.16;4947891;28;20026;-75
2023/08/19 07:10:16;;;;;;;11.43;10.25;;;;;;;21.89;86.71;101603.69;4958716;28;20128;-77
2023/08/19 07:12:43;;;;;;;12.05;9.57;;;;;;;21.98;86.15;101599.00;4980628;28;20029;-77
2023/08/19 07:15:12;;;;;;;14.00;11.07;;;;;;;22.04;85.73;101589.53;4951541;28;20066;-78
2023/08/19 07:17:44;;;;;;;10.77;9.68;;;;;;;22.19;86.32;101590.13;4946729;28;20400;-81
2023/08/19 07:20:14;;;;;;;10.93;9.82;;;;;;;22.28;85.79;101588.16;4978598;28;20053;-77
2023/08/19 07:22:42;;;;;;;12.57;8.93;;;;;;;22.34;85.46;101584.13;4946248;28;20050;-76
2023/08/19 07:25:09;;;;;;;14.40;9.52;;;;;;;22.40;84.68;101582.00;4944419;28;20077;-79
2023/08/19 07:27:35;;;;;;;11.95;9.88;;;;;;;22.46;84.83;101581.50;4959596;28;20052;-77
2023/08/19 07:30:03;;;;;;;10.73;9.07;;;;;;;22.55;84.23;101574.03;4948456;28;20040;-79
2023/08/19 07:32:30;;;;;;;11.55;8.85;;;;;;;22.58;83.21;101570.66;4942439;28;20069;-78
2023/08/19 07:34:56;;;;;;;9.88;8.88;;;;;;;22.68;83.69;101576.84;4947276;28;20077;-80
2023/08/19 07:37:51;;;;;;;11.98;9.05;;;;;;;22.83;83.37;101573.56;4960177;28;20042;-79
2023/08/19 07:40:42;;;;;;;11.63;8.63;;;;;;;22.89;81.98;101574.97;4981470;28;20735;-75
2023/08/19 07:43:19;;;;;;;12.15;10.95;;;;;;;22.90;81.57;101573.88;4947053;28;20531;-74
2023/08/19 07:46:08;;;;;;;14.55;9.93;;;;;;;22.81;81.35;101567.63;4947015;28;20082;-74
2023/08/19 07:48:38;;;;;;;9.60;8.60;;;;;;;22.78;81.76;101573.75;4947994;28;20151;-75
2023/08/19 07:51:12;;;;;;;11.80;9.77;;;;;;;22.86;81.61;101570.19;4935281;28;20763;-74
2023/08/19 07:53:41;;;;;;;11.80;9.55;;;;;;;22.95;81.49;101567.38;4934642;28;20126;-80
2023/08/19 07:56:09;;;;;;;11.75;9.40;;;;;;;23.06;81.04;101563.13;4954478;28;20513;-76
2023/08/19 07:58:36;;;;;;;9.98;8.98;;;;;;;23.14;80.60;101571.25;4944483;28;20026;-76
2023/08/19 08:01:06;;;;;;;10.55;9.45;;;;;;;23.22;81.45;101571.50;4942654;28;20562;-76
2023/08/19 08:03:52;;;;;;;10.95;8.82;;;;;;;23.30;81.08;101576.91;4962724;28;20042;-78
2023/08/19 08:09:32;;;;;;;14.15;9.95;;;;;;;23.43;79.93;101575.78;4946907;28;20488;-77
2023/08/19 08:12:54;;;;;;;9.27;8.32;;;;;;;23.51;79.66;101587.81;4980238;28;20069;-74
2023/08/19 08:16:38;;;;;;;9.80;8.82;;;;;;;23.70;79.77;101582.63;4977245;28;20125;-75
2023/08/19 08:35:41;;;;;;;10.10;8.68;;;;;;;24.18;77.88;101575.66;4919823;29;20781;-73
2023/08/19 08:39:12;;;;;;;10.40;9.25;;;;;;;24.27;76.95;101572.78;4909601;29;20151;-76
2023/08/19 08:43:20;;;;;;;11.18;9.73;;;;;;;24.45;75.93;101565.16;4867844;29;20056;-79
2023/08/19 08:46:50;;;;;;;11.82;9.88;;;;;;;24.56;76.13;101546.31;4874892;29;20132;-76
2023/08/19 08:50:27;;;;;;;11.80;9.32;;;;;;;24.67;76.70;101550.97;4883527;29;20146;-72
2023/08/19 08:53:33;;;;;;;10.50;9.40;;;;;;;24.86;76.67;101561.34;4872646;29;20071;-78
2023/08/19 08:57:51;;;;;;;10.65;9.68;;;;;;;25.03;75.97;101562.97;4865723;29;20091;-75
2023/08/19 09:31:06;;;;;;;10.07;8.43;;;;;;;25.44;74.74;101559.06;4897963;29;20055;-74
2023/08/19 09:39:07;;;;;;;10.45;9.38;;;;;;;25.87;72.27;101557.44;4968485;28;20108;-78
2023/08/19 09:42:32;;;;;;;9.20;8.30;;;;;;;25.91;71.71;101541.09;4956822;28;20054;-77
2023/08/19 09:45:35;;;;;;;10.65;9.38;;;;;;;25.91;72.55;101538.34;4966007;28;20121;-74
2023/08/19 09:48:15;;;;;;;9.75;8.40;;;;;;;25.92;71.58;101534.44;4943283;28;20050;-78
2023/08/19 09:50:56;;;;;;;11.35;8.98;;;;;;;25.85;71.53;101529.56;4963974;28;20070;-77
2023/08/19 09:53:43;;;;;;;10.65;9.30;;;;;;;25.93;72.08;101536.81;4956033;28;20084;-75
2023/08/19 09:56:27;;;;;;;12.73;10.40;;;;;;;25.90;72.03;101537.53;4953997;28;20031;-73
2023/08/19 09:59:22;;;;;;;11.02;9.77;;;;;;;25.99;73.26;101538.16;4942205;28;20066;-78
2023/08/19 10:01:59;;;;;;;9.75;8.77;;;;;;;26.04;72.51;101537.09;4930493;28;20042;-75
2023/08/19 10:05:00;;;;;;;11.23;9.30;;;;;;;26.15;71.87;101532.66;4963165;28;20096;-74
2023/08/19 10:08:17;;;;;;;11.35;10.13;;;;;;;26.23;71.91;101533.63;4964736;28;20122;-75
2023/08/19 10:10:50;;;;;;;13.73;9.18;;;;;;;26.23;72.25;101531.66;4961157;28;20084;-72
2023/08/19 10:13:23;;;;;;;11.52;10.45;;;;;;;26.33;73.35;101527.56;4967311;28;20057;-75
2023/08/19 10:15:57;;;;;;;;;;;;;;;26.44;71.18;101533.34;4938840;28;20142;-73
2023/08/19 10:18:30;;;;;;;12.02;10.82;;;;;;;26.46;71.29;101522.78;4982388;28;19977;-76
2023/08/19 10:21:04;;;;;;;11.13;10.02;;;;;;;26.61;71.97;101521.94;4948090;28;20039;-74
2023/08/19 10:23:33;;;;;;;11.50;9.00;;;;;;;26.78;70.69;101521.53;4974566;28;20033;-76
2023/08/19 10:26:02;;;;;;;14.07;8.70;;;;;;;26.90;71.59;101528.84;4961324;28;20622;-77
2023/08/19 10:29:11;;;;;;;10.23;9.27;;;;;;;27.07;70.56;101522.13;4938188;28;20121;-72
2023/08/19 10:31:51;;;;;;;15.52;9.32;;;;;;;27.17;69.36;101514.09;4976724;28;20058;-73
2023/08/19 10:34:26;;;;;;;11.57;10.45;;;;;;;27.15;69.38;101501.84;4925886;28;20951;-75
2023/08/19 10:37:12;;;;;;;11.68;9.77;;;;;;;27.29;70.23;101507.59;4931835;28;20046;-74
2023/08/19 10:39:38;;;;;;;9.77;8.80;;;;;;;27.44;69.38;101514.97;4952861;28;20128;-74
2023/08/19 10:42:05;;;;;;;11.02;9.52;;;;;;;27.56;69.45;101504.94;4970765;28;20030;-76
2023/08/19 10:44:33;;;;;;;12.25;10.07;;;;;;;27.71;68.81;101506.81;4945957;28;20121;-76
2023/08/19 10:47:10;;;;;;;11.35;10.25;;;;;;;27.78;67.12;101504.19;4939196;28;20046;-78
2023/08/19 10:49:37;;;;;;;10.38;9.35;;;;;;;27.86;66.51;101516.88;4937204;28;20546;-74
2023/08/19 10:52:07;;;;;;;10.32;8.80;;;;;;;27.80;67.02;101504.59;4931190;28;20050;-80
2023/08/19 10:54:38;;;;;;;10.07;9.10;;;;;;;27.82;66.79;101512.47;4985551;28;20033;-73
2023/08/19 10:57:14;;;;;;;13.48;8.93;;;;;;;27.89;66.41;101513.38;4966662;28;20042;-75
2023/08/19 10:59:47;;;;;;;10.77;9.65;;;;;;;27.93;66.56;101508.72;4946191;28;20026;-73
2023/08/19 11:02:14;;;;;;;11.05;9.68;;;;;;;28.01;66.38;101504.91;4933200;28;20038;-76
2023/08/19 11:04:45;;;;;;;11.70;9.85;;;;;;;28.09;67.73;101505.03;4946046;28;20038;-74
2023/08/19 11:07:12;;;;;;;11.20;10.10;;;;;;;28.20;66.14;101500.47;4940388;28;20096;-74
2023/08/19 11:09:43;;;;;;;12.60;10.50;;;;;;;28.23;65.32;101494.22;4967789;28;20030;-75
2023/08/19 11:12:11;;;;;;;11.15;9.98;;;;;;;28.23;65.88;101499.72;4942153;28;20089;-78
2023/08/19 11:14:38;;;;;;;10.15;9.10;;;;;;;28.17;64.58;101496.50;4966177;28;20041;-73
2023/08/19 11:17:04;;;;;;;13.55;11.43;;;;;;;28.31;66.39;101506.94;4946605;28;20049;-76
2023/08/19 11:19:31;;;;;;;10.80;9.70;;;;;;;28.44;67.75;101499.25;4947396;28;20112;-74
2023/08/19 11:21:57;;;;;;;11.65;10.30;;;;;;;28.65;65.39;101502.28;4962997;28;20500;-74
2023/08/19 11:24:34;;;;;;;11.90;10.70;;;;;;;28.73;64.58;101495.72;4945438;28;20041;-75
2023/08/19 11:27:01;;;;;;;11.15;9.73;;;;;;;28.74;62.73;101496.50;4925207;28;20030;-77
2023/08/19 11:29:27;;;;;;;10.52;9.45;;;;;;;28.88;64.46;101493.91;4956584;28;20496;-72
2023/08/19 11:31:54;;;;;;;12.63;10.88;;;;;;;29.07;63.50;101488.25;4961668;28;20413;-74
2023/08/19 11:34:20;;;;;;;11.07;9.60;;;;;;;29.20;63.12;101496.25;4960241;28;20042;-75
2023/08/19 11:36:46;;;;;;;10.13;9.10;;;;;;;29.31;63.10;101495.16;4936641;28;20051;-73
2023/08/19 11:39:14;;;;;;;11.05;10.07;;;;;;;29.47;61.86;101492.19;4965374;28;20093;-78
2023/08/19 11:41:40;;;;;;;10.98;9.50;;;;;;;29.37;61.41;101481.81;4967280;28;20038;-74
2023/08/19 11:44:07;;;;;;;11.15;9.18;;;;;;;29.33;63.22;101489.25;4952830;28;20049;-76
2023/08/19 11:46:36;;;;;;;10.10;9.10;;;;;;;29.24;62.02;101480.53;4942718;28;20073;-76
2023/08/19 11:49:13;;;;;;;11.55;9.52;;;;;;;29.33;63.08;101483.75;4930759;28;20054;-74
2023/08/19 11:51:40;;;;;;;11.10;9.05;;;;;;;29.12;60.53;101486.31;4942134;28;20118;-74
2023/08/19 11:54:12;;;;;;;10.10;9.07;;;;;;;28.98;61.28;101484.97;4964174;28;20054;-76
2023/08/19 11:56:49;;;;;;;10.07;9.00;;;;;;;28.91;62.65;101475.81;4932834;28;20030;-74
2023/08/19 11:59:16;;;;;;;11.57;9.45;;;;;;;28.82;62.07;101481.63;4947958;28;20035;-75
2023/08/19 12:01:44;;;;;;;15.05;9.52;;;;;;;28.75;62.47;101487.06;4945894;28;20088;-73
2023/08/19 12:04:11;;;;;;;10.15;9.15;;;;;;;28.68;62.82;101482.25;4963480;28;20038;-75
2023/08/19 12:06:38;;;;;;;10.00;8.98;;;;;;;28.54;62.92;101482.09;4963095;28;20492;-76
2023/08/19 12:09:05;;;;;;;10.35;9.35;;;;;;;28.50;63.68;101487.53;4936035;28;20034;-72
2023/08/19 12:11:33;;;;;;;10.75;9.65;;;;;;;28.47;63.97;101480.03;4964950;28;20041;-74
2023/08/19 12:13:59;;;;;;;12.20;10.48;;;;;;;28.44;64.67;101486.28;4967604;28;20068;-74
2023/08/19 12:16:28;;;;;;;14.60;9.77;;;;;;;28.44;64.95;101489.03;4951204;28;20736;-74
2023/08/19 12:18:54;;;;;;;8.95;8.05;;;;;;;28.42;64.33;101485.84;4983203;28;20042;-74
2023/08/19 12:21:19;;;;;;;9.82;8.85;;;;;;;28.51;63.99;101485.56;4966667;28;20093;-75
2023/08/19 12:23:45;;;;;;;9.70;8.75;;;;;;;28.55;62.41;101478.16;4952288;28;20096;-76
2023/08/19 12:26:11;;;;;;;10.52;8.35;;;;;;;28.56;62.61;101477.78;4963069;28;20031;-79
2023/08/19 12:28:37;;;;;;;8.68;7.82;;;;;;;28.69;63.15;101477.53;4946679;28;20042;-79
2023/08/19 12:31:02;;;;;;;9.23;8.15;;;;;;;28.73;61.01;101472.88;4952220;28;20125;-79